Estación Temperatura (°C) Hum
rel
(%)
Precip
(mm)
Viento (km/h) Actual.
Act Mín Máx Act Dir Máx
Vega Baja del Segura
Albatera Albatera C.U. / Centro 29,2 24,8 31,6 48 0,0 14 SO 35 2022-07-06 19:00:00
Almoradí Almoradí C.U. / Centro 29,1 24,5 31,1 69 0,0 10 ENE 27 2022-07-06 19:05:00
Almoradí Almoradí C.U. / Los Gomares 28,2 24,0 30,4 71 0,0 9 SE 33 2022-07-06 19:09:00
Benejúzar Benejúzar C.U. / Centro 28,7 24,5 30,7 70 0,0 14 E 35 2022-07-06 19:00:00
Bigastro Bigastro C.U. / Lo Chusco 27,7 24,2 30,7 70 0,0 14 NE 39 2022-07-06 19:09:00
Callosa de Segura Callosa de Segura C.U. / Casa Juventud 29,4 25,0 31,9 63 0,0 3 NNE 22 2022-07-06 19:10:00
Catral Catral C.U. / Centro 29,7 24,3 31,2 46 0,0 11 SE 34 2022-07-06 19:00:00
Cox Cox C.U. / Centro 29,3 25,1 31,3 49 0,0 6 E 35 2022-07-06 19:00:00
Cox Cox C.U. / El Jasminao 28,9 24,7 31,4 68 0,0 11 SE 35 2022-07-06 19:00:00
Daya Vieja Daya Vieja 29,1 23,5 31,5 68 0,7 7 ENE 30 2022-07-06 19:10:00
Dolores Dolores C.U. / Centro 28,7 24,5 30,7 66 0,0 5 ESE 29 2022-07-06 19:10:00
Guardamar del Segura Guardamar del Segura C.U. / Centro 28,1 24,6 29,0 78 0,0 5 ESE 32 2022-07-06 19:04:00
Jacarilla El Copo 28,4 24,2 30,2 73 0,0 11 SE 34 2022-07-06 19:00:00
Jacarilla Jacarilla C.U. / Centro 29,0 24,4 31,1 70 0,0 8 E 29 2022-07-06 19:00:00
Orihuela Arneva Barranco 28,7 23,9 31,5 66 0,0 13 E 33 2022-07-06 19:10:00
Orihuela Arneva Centro 28,2 24,3 30,9 72 0,0 13 ENE 40 2022-07-06 19:10:00
Orihuela Dehesa de Pinohermoso 28,7 23,3 30,5 65 0,0 23 E 42 2022-07-06 19:00:00
Orihuela Desamparados 28,4 23,8 31,2 68 0,0 13 ENE 55 2022-07-06 19:10:00
Orihuela La Campaneta 29,0 24,4 31,5 69 0,0 13 NE 29 2022-07-06 19:00:00
Orihuela La Regia 28,0 24,6 29,7 80 0,5 5 NNE 28 2022-07-06 19:10:00
Orihuela Las Norias 28,7 23,6 31,1 19 0,0 29 NE 52 2022-07-06 19:10:00
Orihuela Orihuela C.U. / Severo Ochoa 29,7 24,9 32,3 64 0,0 7 NNO 30 2022-07-06 19:10:00
Orihuela Playa Flamenca 28,4 24,9 29,7 75 0,5 3 NNO 42 2022-07-06 19:10:00
Orihuela Raiguero de Bonanza 28,8 24,9 30,9 70 0,0 15 SE 39 2022-07-06 19:05:00
Orihuela San Bartolomé 28,7 24,3 31,4 70 0,0 8 E 33 2022-07-06 19:10:00
Orihuela Zenia Boulevard 27,4 24,9 28,8 80 0,2 19 NE 39 2022-07-06 19:00:00
Rafal Rafal C.U / Centro 29,1 24,9 31,9 68 0,0 13 SE 31 2022-07-06 19:10:00
Redován Redován C.U. / Centro 29,2 24,9 31,4 68 0,0 0 N 3 2022-07-06 19:10:00
Rojales Ciudad Quesada 27,6 24,3 29,4 76 0,2 16 E 42 2022-07-06 19:05:00
Rojales Rojales C.U. / Centro 40,5 26,2 41,0 38 0,0 0 N -999 2022-07-06 19:10:00
San Fulgencio San Fulgencio C.U. / C. Reina Sofía 27,8 23,7 29,3 73 1,0 23 NE 40 2022-07-06 19:00:00
San Fulgencio Urb. La Marina 27,3 23,8 28,5 75 0,7 6 NE 37 2022-07-06 19:00:00
San Miguel de Salinas Lo Meca 27,7 23,3 29,9 62 0,0 15 ENE 34 2022-07-06 19:02:00
Santa Pola Playa Lisa 28,2 24,4 28,9 70 0,2 0 ENE 44 2022-07-06 19:10:00
Torrevieja El Chaparral 26,9 24,4 28,5 77 0,7 13 NE 39 2022-07-06 19:11:00
Pilar de la Horadada P. de la Horadada C.U. / Lo Monte 26,7 24,3 27,8 83 0,5 10 E 35 2022-07-06 19:10:00
Zonas Adyacentes
Granada Granada C.U. / La Alhambra 32,3 19,1 33,4 12 0,0 10 OSO 16 2022-07-06 19:10:00
Abanilla Abanilla C.U. / Centro 28,1 23,2 30,4 61 0,0 13 N 62 2022-07-06 19:09:00
Abarán El Rulete 28,2 22,2 32,1 63 0,0 23 SE 42 2022-07-06 19:10:00
Molina de Segura La Espada 28,8 22,8 32,7 57 0,0 15 E 32 2022-07-06 19:02:00
Murcia Cañadas de San Pedro 27,9 23,2 29,9 75 0,0 16 ENE 34 2022-07-06 19:03:00
Murcia Santo Ángel 29,7 25,0 32,7 60 0,0 13 E 31 2022-07-06 19:10:00
San Pedro del Pinatar San Pedro C.U. / Centro 26,1 25,0 27,2 66 0,8 21 ENE 21 2022-07-06 19:04:00
Santomera La Almazara 30,1 23,7 32,1 64 0,0 10 ENE 34 2022-07-06 17:09:00
Santomera Santomera C.U. / Centro 29,8 24,8 32,3 61 0,0 14 E 35 2022-07-06 19:10:00